Time;durP1;ratioP1;P1;durP2;ratioP2;P2;SDS_P1;SDS_P2;PMS_P1;PMS_P2;Temp;Humidity;BMP_temperature;BMP_pressure;BME280_temperature;BME280_humidity;BME280_pressure;Samples;Min_cycle;Max_cycle;Signal;HPM_P1;HPM_P2
2022/03/22 00:02:04;;;;;;;7.70;3.90;;;;;;;;;;5093212;28;20066;-38
2022/03/22 00:04:29;;;;;;;8.95;3.92;;;;;;;;;;5093256;28;20421;-38
2022/03/22 00:06:55;;;;;;;6.07;4.25;;;;;;;;;;5093021;28;20043;-38
2022/03/22 00:09:21;;;;;;;4.72;3.45;;;;;;;;;;5092718;28;20024;-43
2022/03/22 00:11:50;;;;;;;7.55;3.83;;;;;;;;;;5092886;28;20036;-39
2022/03/22 00:14:15;;;;;;;6.72;3.65;;;;;;;;;;5092299;28;20115;-39
2022/03/22 00:16:41;;;;;;;6.85;3.85;;;;;;;;;;5092759;28;20039;-38
2022/03/22 00:19:07;;;;;;;8.35;4.28;;;;;;;;;;5092694;28;20012;-38
2022/03/22 00:21:32;;;;;;;11.27;5.18;;;;;;;;;;5092913;28;20028;-38
2022/03/22 00:23:57;;;;;;;7.75;3.33;;;;;;;;;;5092616;28;20016;-38
2022/03/22 00:26:23;;;;;;;7.45;3.90;;;;;;;;;;5092456;28;20043;-38
2022/03/22 00:28:48;;;;;;;6.55;4.15;;;;;;;;;;5092570;28;20053;-39
2022/03/22 00:31:15;;;;;;;9.45;4.25;;;;;;;;;;5092505;28;20038;-38
2022/03/22 00:33:40;;;;;;;6.53;3.70;;;;;;;;;;5092750;28;20023;-40
2022/03/22 00:36:06;;;;;;;5.55;4.13;;;;;;;;;;5092219;28;20043;-38
2022/03/22 00:38:32;;;;;;;8.50;3.67;;;;;;;;;;5092363;28;20016;-38
2022/03/22 00:40:58;;;;;;;6.88;3.50;;;;;;;;;;5092236;28;20039;-38
2022/03/22 00:43:24;;;;;;;7.50;3.45;;;;;;;;;;5092467;28;20028;-41
2022/03/22 00:45:49;;;;;;;5.93;3.58;;;;;;;;;;5092218;28;20489;-38
2022/03/22 00:48:15;;;;;;;10.48;4.45;;;;;;;;;;5092430;28;20020;-38
2022/03/22 00:50:43;;;;;;;5.15;3.13;;;;;;;;;;5091964;28;20051;-38
2022/03/22 00:53:08;;;;;;;6.57;3.95;;;;;;;;;;5092330;28;20058;-39
2022/03/22 00:55:34;;;;;;;9.95;4.22;;;;;;;;;;5092308;28;20048;-39
2022/03/22 00:57:59;;;;;;;7.38;3.70;;;;;;;;;;5092112;28;20020;-38
2022/03/22 01:00:26;;;;;;;11.45;4.47;;;;;;;;;;5091941;28;20036;-38
2022/03/22 01:02:55;;;;;;;11.05;5.00;;;;;;;;;;5092247;28;20034;-39
2022/03/22 01:05:22;;;;;;;6.85;3.90;;;;;;;;;;5091880;28;20110;-38
2022/03/22 01:07:48;;;;;;;6.90;3.60;;;;;;;;;;5091897;28;20098;-38
2022/03/22 01:10:14;;;;;;;7.38;4.70;;;;;;;;;;5091868;28;20052;-39
2022/03/22 01:12:40;;;;;;;5.90;4.10;;;;;;;;;;5091892;28;20027;-38
2022/03/22 01:15:10;;;;;;;6.85;3.53;;;;;;;;;;5091624;28;20135;-38
2022/03/22 01:17:36;;;;;;;8.27;3.70;;;;;;;;;;5092058;28;20031;-38
2022/03/22 01:20:01;;;;;;;7.53;4.32;;;;;;;;;;5091720;28;20028;-38
2022/03/22 01:22:27;;;;;;;7.60;4.05;;;;;;;;;;5091769;28;20015;-38
2022/03/22 01:24:53;;;;;;;6.70;3.80;;;;;;;;;;5090973;28;20189;-38
2022/03/22 01:27:21;;;;;;;7.50;4.10;;;;;;;;;;5091495;28;20035;-38
2022/03/22 01:29:47;;;;;;;5.07;2.75;;;;;;;;;;5091622;28;20028;-38
2022/03/22 01:32:12;;;;;;;7.93;3.95;;;;;;;;;;5091469;28;20382;-38
2022/03/22 01:34:38;;;;;;;8.25;4.30;;;;;;;;;;5091463;28;20124;-38
2022/03/22 01:37:04;;;;;;;6.45;4.13;;;;;;;;;;5091565;28;20023;-39
2022/03/22 01:39:29;;;;;;;6.60;3.55;;;;;;;;;;5091371;28;20140;-38
2022/03/22 01:41:55;;;;;;;7.40;4.60;;;;;;;;;;5091428;28;20016;-38
2022/03/22 01:44:20;;;;;;;7.18;4.22;;;;;;;;;;5090031;28;20052;-38
2022/03/22 01:46:46;;;;;;;8.65;4.15;;;;;;;;;;5091700;28;20023;-38
2022/03/22 01:49:11;;;;;;;6.03;3.70;;;;;;;;;;5091544;28;20054;-39
2022/03/22 01:51:38;;;;;;;5.68;3.80;;;;;;;;;;5091272;28;20075;-38
2022/03/22 01:54:04;;;;;;;6.00;3.92;;;;;;;;;;5091349;28;20435;-38
2022/03/22 01:56:29;;;;;;;8.20;4.07;;;;;;;;;;5091472;28;20440;-38
2022/03/22 01:58:55;;;;;;;8.52;4.10;;;;;;;;;;5091547;28;20470;-38
2022/03/22 02:06:52;;;;;;;8.57;3.63;;;;;;;;;;5091525;28;20028;-38
2022/03/22 02:09:17;;;;;;;9.90;4.43;;;;;;;;;;5091246;28;20023;-38
2022/03/22 02:11:43;;;;;;;7.25;4.22;;;;;;;;;;5091061;28;20023;-38
2022/03/22 02:14:09;;;;;;;11.35;4.80;;;;;;;;;;5091303;28;20138;-39
2022/03/22 02:16:35;;;;;;;7.72;3.90;;;;;;;;;;5091110;28;20383;-38
2022/03/22 02:19:01;;;;;;;9.75;3.97;;;;;;;;;;5091330;28;20032;-38
2022/03/22 02:21:30;;;;;;;8.85;3.63;;;;;;;;;;5091019;28;20035;-38
2022/03/22 02:23:58;;;;;;;8.20;4.13;;;;;;;;;;5091134;28;20046;-38
2022/03/22 02:26:25;;;;;;;6.65;4.03;;;;;;;;;;5091260;28;20144;-38
2022/03/22 02:28:53;;;;;;;6.57;3.88;;;;;;;;;;5091097;28;20056;-38
2022/03/22 02:31:19;;;;;;;12.13;4.72;;;;;;;;;;5089574;28;20419;-38
2022/03/22 02:33:45;;;;;;;7.63;3.78;;;;;;;;;;5090981;28;20052;-38
2022/03/22 02:36:10;;;;;;;9.68;4.45;;;;;;;;;;5091571;28;20123;-38
2022/03/22 02:38:36;;;;;;;9.70;4.63;;;;;;;;;;5094693;28;20020;-38
2022/03/22 02:41:01;;;;;;;6.95;3.90;;;;;;;;;;5094867;28;20031;-38
2022/03/22 02:43:27;;;;;;;7.97;3.58;;;;;;;;;;5094601;28;20020;-38
2022/03/22 02:45:53;;;;;;;6.53;3.65;;;;;;;;;;5094775;28;20119;-38
2022/03/22 02:48:18;;;;;;;10.93;4.60;;;;;;;;;;5094687;28;20016;-38
2022/03/22 02:50:44;;;;;;;7.95;4.55;;;;;;;;;;5094320;28;20048;-39
2022/03/22 02:53:10;;;;;;;11.65;5.13;;;;;;;;;;5094393;28;20056;-38
2022/03/22 02:55:36;;;;;;;5.68;3.65;;;;;;;;;;5094306;28;20047;-38
2022/03/22 02:58:02;;;;;;;10.57;4.63;;;;;;;;;;5094342;28;20028;-38
2022/03/22 03:00:27;;;;;;;9.60;4.30;;;;;;;;;;5094110;28;20059;-38
2022/03/22 03:02:53;;;;;;;7.93;4.60;;;;;;;;;;5094323;28;20020;-38
2022/03/22 03:05:19;;;;;;;6.82;4.15;;;;;;;;;;5094204;28;20088;-38
2022/03/22 03:07:44;;;;;;;12.38;4.82;;;;;;;;;;5094128;28;20554;-38
2022/03/22 03:10:10;;;;;;;11.10;4.13;;;;;;;;;;5094065;28;20114;-38
2022/03/22 03:12:35;;;;;;;8.43;4.50;;;;;;;;;;5093956;28;20362;-38
2022/03/22 03:15:01;;;;;;;9.13;5.00;;;;;;;;;;5093862;28;20043;-38
2022/03/22 03:17:27;;;;;;;5.40;3.50;;;;;;;;;;5093911;28;20024;-38
2022/03/22 03:19:53;;;;;;;5.80;4.15;;;;;;;;;;5094191;28;20032;-38
2022/03/22 03:22:19;;;;;;;7.65;4.68;;;;;;;;;;5093986;28;20355;-38
2022/03/22 03:24:44;;;;;;;7.45;4.53;;;;;;;;;;5094095;28;20078;-39
2022/03/22 03:27:09;;;;;;;6.30;3.83;;;;;;;;;;5093670;28;20070;-38
2022/03/22 03:29:35;;;;;;;13.05;4.15;;;;;;;;;;5093668;28;20032;-38
2022/03/22 03:32:00;;;;;;;8.55;5.20;;;;;;;;;;5093655;28;20035;-38
2022/03/22 03:34:26;;;;;;;8.02;4.90;;;;;;;;;;5092172;28;20061;-39
2022/03/22 03:36:51;;;;;;;7.55;4.40;;;;;;;;;;5093586;28;20110;-38
2022/03/22 03:39:17;;;;;;;9.05;4.78;;;;;;;;;;5093440;28;20378;-38
2022/03/22 03:41:56;;;;;;;6.00;3.33;;;;;;;;;;5093693;28;20031;-39
2022/03/22 03:47:13;;;;;;;8.98;4.10;;;;;;;;;;5092922;28;20059;-38
2022/03/22 03:49:41;;;;;;;10.27;4.38;;;;;;;;;;5091546;28;20020;-38
2022/03/22 03:52:07;;;;;;;7.82;3.67;;;;;;;;;;5093053;28;20048;-38
2022/03/22 03:54:33;;;;;;;7.10;4.18;;;;;;;;;;5093035;28;20077;-38
2022/03/22 03:56:58;;;;;;;7.13;3.95;;;;;;;;;;5093466;28;20040;-38
2022/03/22 03:59:23;;;;;;;8.90;4.45;;;;;;;;;;5093320;28;20446;-38
2022/03/22 04:01:49;;;;;;;5.85;3.25;;;;;;;;;;5091793;28;20444;-39
2022/03/22 04:04:15;;;;;;;8.45;4.65;;;;;;;;;;5093073;28;20027;-38
2022/03/22 04:06:40;;;;;;;12.25;4.30;;;;;;;;;;5092936;28;20500;-38
2022/03/22 04:09:05;;;;;;;7.88;3.83;;;;;;;;;;5092909;28;20023;-38
2022/03/22 04:11:31;;;;;;;9.20;4.43;;;;;;;;;;5092784;28;20077;-38
2022/03/22 04:13:56;;;;;;;7.78;4.15;;;;;;;;;;5092854;28;20051;-38
2022/03/22 04:16:22;;;;;;;8.70;4.13;;;;;;;;;;5092945;28;20067;-38
2022/03/22 04:18:48;;;;;;;8.60;4.53;;;;;;;;;;5093018;28;20225;-38
2022/03/22 04:21:14;;;;;;;8.95;4.32;;;;;;;;;;5092628;28;20032;-38
2022/03/22 04:23:40;;;;;;;11.10;3.55;;;;;;;;;;5092955;28;20032;-38
2022/03/22 04:26:06;;;;;;;8.68;3.90;;;;;;;;;;5092599;28;20051;-39
2022/03/22 04:34:01;;;;;;;6.07;3.95;;;;;;;;;;5092758;28;20176;-38
2022/03/22 04:36:27;;;;;;;11.45;4.30;;;;;;;;;;5092328;28;20060;-38
2022/03/22 04:38:53;;;;;;;8.18;4.32;;;;;;;;;;5092413;28;20031;-38
2022/03/22 04:41:18;;;;;;;7.22;3.80;;;;;;;;;;5092240;28;20028;-38
2022/03/22 04:43:43;;;;;;;9.57;4.82;;;;;;;;;;5092331;28;20063;-38
2022/03/22 04:46:09;;;;;;;8.50;4.25;;;;;;;;;;5090989;28;20028;-38
2022/03/22 04:48:36;;;;;;;12.70;4.13;;;;;;;;;;5092065;28;20182;-38
2022/03/22 04:56:48;;;;;;;7.40;4.00;;;;;;;;;;5092119;28;20044;-38
2022/03/22 04:59:15;;;;;;;11.13;4.25;;;;;;;;;;5091827;28;20028;-38
2022/03/22 05:01:42;;;;;;;8.05;4.78;;;;;;;;;;5090960;28;20028;-38
2022/03/22 05:04:08;;;;;;;11.48;4.47;;;;;;;;;;5092041;28;20036;-38
2022/03/22 05:06:36;;;;;;;7.40;4.03;;;;;;;;;;5090528;28;20057;-38
2022/03/22 05:09:03;;;;;;;6.07;3.80;;;;;;;;;;5092126;28;20032;-38
2022/03/22 05:11:30;;;;;;;10.23;4.25;;;;;;;;;;5091679;28;20055;-38
2022/03/22 05:13:55;;;;;;;6.85;4.05;;;;;;;;;;5091836;28;20028;-38
2022/03/22 05:16:22;;;;;;;6.25;3.75;;;;;;;;;;5091874;28;20039;-38
2022/03/22 05:18:48;;;;;;;8.35;3.50;;;;;;;;;;5092046;28;20028;-38
2022/03/22 05:21:13;;;;;;;9.10;4.53;;;;;;;;;;5090300;28;20504;-38
2022/03/22 05:23:39;;;;;;;8.25;3.83;;;;;;;;;;5091690;28;20024;-38
2022/03/22 05:26:05;;;;;;;7.40;3.78;;;;;;;;;;5091672;28;20020;-38
2022/03/22 05:28:31;;;;;;;8.93;3.78;;;;;;;;;;5091525;28;20493;-38
2022/03/22 05:30:56;;;;;;;7.45;4.18;;;;;;;;;;5091745;28;20031;-38
2022/03/22 05:33:22;;;;;;;8.40;4.10;;;;;;;;;;5091784;28;20474;-38
2022/03/22 05:35:48;;;;;;;8.88;4.22;;;;;;;;;;5091793;28;20378;-38
2022/03/22 05:38:14;;;;;;;6.20;3.40;;;;;;;;;;5090077;28;20086;-38
2022/03/22 05:40:39;;;;;;;5.65;3.80;;;;;;;;;;5091460;28;20039;-38
2022/03/22 05:43:05;;;;;;;6.68;3.97;;;;;;;;;;5091800;28;20028;-38
2022/03/22 05:45:31;;;;;;;10.43;4.50;;;;;;;;;;5091286;28;20069;-39
2022/03/22 05:47:59;;;;;;;7.63;3.65;;;;;;;;;;5091513;28;20060;-38
2022/03/22 05:50:25;;;;;;;15.07;6.00;;;;;;;;;;5091309;28;20077;-39
2022/03/22 05:52:51;;;;;;;7.70;3.95;;;;;;;;;;5091347;28;20040;-38
2022/03/22 05:55:16;;;;;;;8.45;3.65;;;;;;;;;;5091221;28;20044;-38
2022/03/22 05:57:42;;;;;;;6.43;3.63;;;;;;;;;;5091280;28;20039;-38
2022/03/22 06:00:08;;;;;;;6.88;4.82;;;;;;;;;;5091317;28;20023;-38
2022/03/22 06:02:38;;;;;;;10.13;4.38;;;;;;;;;;5089991;28;20390;-38
2022/03/22 06:05:04;;;;;;;9.20;4.07;;;;;;;;;;5091474;28;20035;-38
2022/03/22 06:07:30;;;;;;;8.13;3.90;;;;;;;;;;5091162;28;20100;-38
2022/03/22 06:09:55;;;;;;;8.52;4.53;;;;;;;;;;5091289;28;20485;-38
2022/03/22 06:12:21;;;;;;;10.50;4.65;;;;;;;;;;5093909;28;20031;-37
2022/03/22 06:14:46;;;;;;;9.10;5.05;;;;;;;;;;5093784;28;20375;-38
2022/03/22 06:17:12;;;;;;;9.10;5.15;;;;;;;;;;5095292;28;20175;-37
2022/03/22 06:19:37;;;;;;;7.75;4.03;;;;;;;;;;5095377;28;20038;-38
2022/03/22 06:22:03;;;;;;;6.57;4.35;;;;;;;;;;5094967;28;20158;-38
2022/03/22 06:24:29;;;;;;;12.30;4.53;;;;;;;;;;5094905;28;20024;-37
2022/03/22 06:26:54;;;;;;;10.95;4.57;;;;;;;;;;5094042;28;20551;-38
2022/03/22 06:29:19;;;;;;;9.93;4.38;;;;;;;;;;5095132;28;20016;-37
2022/03/22 06:31:45;;;;;;;11.65;5.03;;;;;;;;;;5095125;28;20034;-38
2022/03/22 06:34:11;;;;;;;6.55;4.20;;;;;;;;;;5094727;28;20461;-37
2022/03/22 06:36:37;;;;;;;7.72;5.10;;;;;;;;;;5094643;28;20043;-38
2022/03/22 06:39:02;;;;;;;12.07;3.95;;;;;;;;;;5094768;28;20016;-38
2022/03/22 06:41:27;;;;;;;6.63;4.72;;;;;;;;;;5094579;28;20028;-38
2022/03/22 06:43:53;;;;;;;8.55;4.28;;;;;;;;;;5094692;28;20022;-38
2022/03/22 06:46:19;;;;;;;12.10;4.57;;;;;;;;;;5094826;28;20081;-37
2022/03/22 06:48:45;;;;;;;8.57;5.25;;;;;;;;;;5094793;28;20403;-38
2022/03/22 06:51:11;;;;;;;8.10;3.65;;;;;;;;;;5094276;28;20117;-38
2022/03/22 06:53:37;;;;;;;7.15;4.40;;;;;;;;;;5094512;28;20466;-38
2022/03/22 06:56:03;;;;;;;8.80;5.25;;;;;;;;;;5094563;28;20043;-38
2022/03/22 06:58:30;;;;;;;11.30;4.97;;;;;;;;;;5094637;28;20015;-38
2022/03/22 07:00:56;;;;;;;8.43;4.88;;;;;;;;;;5094279;28;20094;-38
2022/03/22 07:03:21;;;;;;;11.82;4.65;;;;;;;;;;5094416;28;20474;-39
2022/03/22 07:05:47;;;;;;;11.30;5.32;;;;;;;;;;5094226;28;20147;-38
2022/03/22 07:08:13;;;;;;;7.90;4.80;;;;;;;;;;5094204;28;20027;-38
2022/03/22 07:10:38;;;;;;;11.40;4.78;;;;;;;;;;5094020;28;20032;-39
2022/03/22 07:13:05;;;;;;;10.90;5.25;;;;;;;;;;5092898;28;20103;-38
2022/03/22 07:15:33;;;;;;;12.40;5.82;;;;;;;;;;5094135;28;20136;-37
2022/03/22 07:18:00;;;;;;;7.55;4.55;;;;;;;;;;5093896;28;20023;-38
2022/03/22 07:20:25;;;;;;;7.15;4.47;;;;;;;;;;5093843;28;20060;-38
2022/03/22 07:22:51;;;;;;;11.13;4.00;;;;;;;;;;5094033;28;20470;-38
2022/03/22 07:25:17;;;;;;;5.50;2.97;;;;;;;;;;5093823;28;20032;-38
2022/03/22 07:27:43;;;;;;;10.20;5.25;;;;;;;;;;5093808;28;20012;-38
2022/03/22 07:30:10;;;;;;;8.90;4.80;;;;;;;;;;5093712;28;20086;-39
2022/03/22 07:32:36;;;;;;;7.18;3.47;;;;;;;;;;5093947;28;20351;-37
2022/03/22 07:35:02;;;;;;;12.80;5.32;;;;;;;;;;5093575;28;20093;-38
2022/03/22 07:37:32;;;;;;;12.55;5.32;;;;;;;;;;5093496;28;20032;-38
2022/03/22 07:39:58;;;;;;;7.05;4.15;;;;;;;;;;5093474;28;20024;-37
2022/03/22 07:42:30;;;;;;;5.95;4.03;;;;;;;;;;5092069;28;20024;-38
2022/03/22 07:44:56;;;;;;;7.90;4.30;;;;;;;;;;5093365;28;20034;-38
2022/03/22 07:47:22;;;;;;;6.90;5.13;;;;;;;;;;5093351;28;20024;-38
2022/03/22 07:55:15;;;;;;;10.13;4.30;;;;;;;;;;5093189;28;20089;-38
2022/03/22 07:57:41;;;;;;;13.25;6.40;;;;;;;;;;5091974;28;20382;-38
2022/03/22 08:00:07;;;;;;;12.23;5.00;;;;;;;;;;5093433;28;20071;-38
2022/03/22 08:02:35;;;;;;;14.68;4.50;;;;;;;;;;5093331;28;20030;-38
2022/03/22 08:05:00;;;;;;;19.35;3.95;;;;;;;;;;5093151;28;20036;-38
2022/03/22 08:07:26;;;;;;;9.70;6.07;;;;;;;;;;5092831;28;20523;-38
2022/03/22 08:09:52;;;;;;;13.38;6.72;;;;;;;;;;5092973;28;20028;-38
2022/03/22 08:12:17;;;;;;;10.55;3.92;;;;;;;;;;5092918;28;20488;-38
2022/03/22 08:14:43;;;;;;;7.35;4.57;;;;;;;;;;5092733;28;20028;-38
2022/03/22 08:17:08;;;;;;;8.90;3.75;;;;;;;;;;5093198;28;20470;-38
2022/03/22 08:19:34;;;;;;;12.43;5.13;;;;;;;;;;5092756;28;20024;-38
2022/03/22 08:21:59;;;;;;;8.63;4.40;;;;;;;;;;5092629;28;20027;-38
2022/03/22 08:24:25;;;;;;;10.68;4.55;;;;;;;;;;5092958;28;20047;-38
2022/03/22 08:26:50;;;;;;;12.15;5.25;;;;;;;;;;5093008;28;20419;-38
2022/03/22 08:29:16;;;;;;;7.20;4.50;;;;;;;;;;5092727;28;20421;-38
2022/03/22 08:31:41;;;;;;;7.90;4.78;;;;;;;;;;5092494;28;20023;-38
2022/03/22 08:34:07;;;;;;;9.95;4.80;;;;;;;;;;5092069;28;20052;-38
2022/03/22 08:36:33;;;;;;;7.93;4.35;;;;;;;;;;5092260;28;20076;-38
2022/03/22 08:38:59;;;;;;;9.43;6.18;;;;;;;;;;5091310;28;20363;-38
2022/03/22 08:41:24;;;;;;;6.22;3.42;;;;;;;;;;5092529;28;20026;-38
2022/03/22 08:43:52;;;;;;;13.35;4.50;;;;;;;;;;5092289;28;20764;-38
2022/03/22 08:46:20;;;;;;;12.05;4.82;;;;;;;;;;5092480;28;20050;-38
2022/03/22 08:48:46;;;;;;;10.48;3.92;;;;;;;;;;5092281;28;20055;-38
2022/03/22 08:51:13;;;;;;;10.80;4.88;;;;;;;;;;5091979;28;20071;-38
2022/03/22 08:53:38;;;;;;;7.45;3.92;;;;;;;;;;5092335;28;20433;-38
2022/03/22 08:56:04;;;;;;;8.27;3.92;;;;;;;;;;5090749;28;20043;-39
2022/03/22 08:58:30;;;;;;;5.57;3.60;;;;;;;;;;5091929;28;20093;-38
2022/03/22 09:00:55;;;;;;;9.35;4.80;;;;;;;;;;5092042;28;20054;-38
2022/03/22 09:03:22;;;;;;;7.95;3.55;;;;;;;;;;5091948;28;20085;-38
2022/03/22 09:08:32;;;;;;;9.63;4.65;;;;;;;;;;5092120;28;20078;-38
2022/03/22 09:10:57;;;;;;;6.43;4.07;;;;;;;;;;5091844;28;20020;-38
2022/03/22 09:13:23;;;;;;;10.05;4.82;;;;;;;;;;5091819;28;20497;-38
2022/03/22 09:15:51;;;;;;;9.63;4.32;;;;;;;;;;5091654;28;20028;-38
2022/03/22 09:18:17;;;;;;;8.00;4.38;;;;;;;;;;5091934;28;20024;-38
2022/03/22 09:20:44;;;;;;;7.80;4.30;;;;;;;;;;5091715;28;20089;-38
2022/03/22 09:23:10;;;;;;;6.72;4.50;;;;;;;;;;5091693;28;20028;-38
2022/03/22 09:25:36;;;;;;;9.55;3.92;;;;;;;;;;5091654;28;20046;-38
2022/03/22 09:28:04;;;;;;;5.05;3.22;;;;;;;;;;5091651;28;20390;-38
2022/03/22 09:30:30;;;;;;;7.15;3.47;;;;;;;;;;5091442;28;20024;-38
2022/03/22 09:32:57;;;;;;;8.20;4.13;;;;;;;;;;5091518;28;20039;-38
2022/03/22 09:35:23;;;;;;;8.82;4.07;;;;;;;;;;5091436;28;20024;-38
2022/03/22 09:37:49;;;;;;;9.02;5.15;;;;;;;;;;5091863;28;20062;-38
2022/03/22 09:40:18;;;;;;;5.22;3.67;;;;;;;;;;5091443;28;20046;-38
2022/03/22 09:42:45;;;;;;;7.63;4.10;;;;;;;;;;5091587;28;20036;-38
2022/03/22 09:45:31;;;;;;;4.95;3.50;;;;;;;;;;5091506;28;20028;-38
2022/03/22 09:47:59;;;;;;;6.18;3.35;;;;;;;;;;5095364;28;20077;-38
2022/03/22 09:51:44;;;;;;;5.10;3.63;;;;;;;;;;5095347;28;20012;-39
2022/03/22 09:53:11;;;;;;;7.80;3.80;;;;;;;;;;5095582;28;20057;-38
2022/03/22 09:55:37;;;;;;;7.88;3.35;;;;;;;;;;5095425;28;20040;-38
2022/03/22 09:58:03;;;;;;;8.73;4.15;;;;;;;;;;5095607;28;20031;-38
2022/03/22 10:00:29;;;;;;;5.88;3.95;;;;;;;;;;5094131;28;20494;-38
2022/03/22 10:02:54;;;;;;;5.50;3.50;;;;;;;;;;5095454;28;20059;-37
2022/03/22 10:05:22;;;;;;;4.88;3.70;;;;;;;;;;5095395;28;20016;-38
2022/03/22 10:07:58;;;;;;;6.18;3.28;;;;;;;;;;5095312;28;20042;-38
2022/03/22 10:10:24;;;;;;;9.27;5.10;;;;;;;;;;5095225;28;20032;-38
2022/03/22 10:12:55;;;;;;;5.50;3.50;;;;;;;;;;5095548;28;20036;-38
2022/03/22 10:15:27;;;;;;;8.70;4.32;;;;;;;;;;5095014;28;20040;-38
2022/03/22 10:18:00;;;;;;;8.43;3.65;;;;;;;;;;5095223;28;20511;-38
2022/03/22 10:20:25;;;;;;;5.18;3.22;;;;;;;;;;5095092;28;20067;-38
2022/03/22 10:22:55;;;;;;;10.30;3.90;;;;;;;;;;5095051;28;20052;-38
2022/03/22 10:25:20;;;;;;;6.43;2.95;;;;;;;;;;5093779;28;20052;-38
2022/03/22 10:27:46;;;;;;;8.43;4.00;;;;;;;;;;5094927;28;20065;-38
2022/03/22 10:30:12;;;;;;;7.45;4.25;;;;;;;;;;5095081;28;20028;-38
2022/03/22 10:32:39;;;;;;;4.85;2.95;;;;;;;;;;5094852;28;20537;-38
2022/03/22 10:35:11;;;;;;;8.20;4.00;;;;;;;;;;5095043;28;20028;-38
2022/03/22 10:37:37;;;;;;;6.40;2.85;;;;;;;;;;5094602;28;20545;-38
2022/03/22 10:40:03;;;;;;;6.35;3.55;;;;;;;;;;5094704;28;20073;-38
2022/03/22 10:42:31;;;;;;;5.50;3.38;;;;;;;;;;5094604;28;20043;-38
2022/03/22 10:45:00;;;;;;;8.88;4.00;;;;;;;;;;5093374;28;20024;-38
2022/03/22 10:47:26;;;;;;;6.05;3.97;;;;;;;;;;5095106;28;20229;-38
2022/03/22 10:50:05;;;;;;;7.45;4.32;;;;;;;;;;5094579;28;20016;-37
2022/03/22 10:52:32;;;;;;;5.60;2.80;;;;;;;;;;5094262;28;20462;-38
2022/03/22 10:54:57;;;;;;;5.63;3.95;;;;;;;;;;5094365;28;20036;-38
2022/03/22 10:57:32;;;;;;;9.90;4.10;;;;;;;;;;5093738;28;20140;-39
2022/03/22 11:00:08;;;;;;;10.50;4.18;;;;;;;;;;5094397;28;20061;-37
2022/03/22 11:02:36;;;;;;;6.78;3.17;;;;;;;;;;5094304;28;20386;-37
2022/03/22 11:05:03;;;;;;;7.38;3.58;;;;;;;;;;5094190;28;20055;-38
2022/03/22 11:07:34;;;;;;;6.30;3.95;;;;;;;;;;5094204;28;20039;-38
2022/03/22 11:09:59;;;;;;;7.63;4.45;;;;;;;;;;5092854;28;20043;-38
2022/03/22 11:12:26;;;;;;;8.13;4.75;;;;;;;;;;5094064;28;20020;-38
2022/03/22 11:14:55;;;;;;;8.68;3.60;;;;;;;;;;5094036;28;20074;-38
2022/03/22 11:17:21;;;;;;;6.78;4.03;;;;;;;;;;5093908;28;20569;-38
2022/03/22 11:19:49;;;;;;;8.07;3.75;;;;;;;;;;5092903;28;20415;-38
2022/03/22 11:22:16;;;;;;;9.40;3.90;;;;;;;;;;5093987;28;20061;-38
2022/03/22 11:24:42;;;;;;;8.27;4.00;;;;;;;;;;5094120;28;20042;-38
2022/03/22 11:27:10;;;;;;;3.83;3.00;;;;;;;;;;5093586;28;20404;-39
2022/03/22 11:29:39;;;;;;;4.75;3.13;;;;;;;;;;5093738;28;20498;-38
2022/03/22 11:34:53;;;;;;;7.30;4.68;;;;;;;;;;5093939;28;20039;-38
2022/03/22 11:37:32;;;;;;;7.30;2.83;;;;;;;;;;5093634;28;20020;-38
2022/03/22 11:42:51;;;;;;;6.43;3.20;;;;;;;;;;5093519;28;20055;-38
2022/03/22 11:45:17;;;;;;;4.93;3.28;;;;;;;;;;5093792;28;20103;-38
2022/03/22 11:47:43;;;;;;;5.97;3.00;;;;;;;;;;5093564;28;20146;-38
2022/03/22 11:50:16;;;;;;;8.13;3.40;;;;;;;;;;5093451;28;20035;-38
2022/03/22 11:52:42;;;;;;;11.45;4.93;;;;;;;;;;5093590;28;20092;-38
2022/03/22 11:55:10;;;;;;;7.88;3.53;;;;;;;;;;5093264;28;20521;-39
2022/03/22 11:57:43;;;;;;;5.13;3.38;;;;;;;;;;5093188;28;20042;-38
2022/03/22 12:00:11;;;;;;;6.18;3.70;;;;;;;;;;5093547;28;20031;-38
2022/03/22 12:02:37;;;;;;;9.35;4.18;;;;;;;;;;5093276;28;20024;-38
2022/03/22 12:05:03;;;;;;;7.20;3.90;;;;;;;;;;5093038;28;20470;-38
2022/03/22 12:07:34;;;;;;;7.55;3.67;;;;;;;;;;5093070;28;20039;-38
2022/03/22 12:10:04;;;;;;;5.88;3.10;;;;;;;;;;5092047;28;20060;-38
2022/03/22 12:12:32;;;;;;;6.20;3.40;;;;;;;;;;5092881;28;20031;-38
2022/03/22 12:15:00;;;;;;;6.22;3.10;;;;;;;;;;5092841;28;20131;-38
2022/03/22 12:17:25;;;;;;;7.43;3.60;;;;;;;;;;5092781;28;20016;-38
2022/03/22 12:19:51;;;;;;;6.90;3.90;;;;;;;;;;5092825;28;20024;-38
2022/03/22 12:22:17;;;;;;;6.35;3.35;;;;;;;;;;5092730;28;20016;-38
2022/03/22 12:24:43;;;;;;;5.10;3.60;;;;;;;;;;5092657;28;20119;-38
2022/03/22 12:27:09;;;;;;;5.65;3.78;;;;;;;;;;5092914;28;20012;-38
2022/03/22 12:29:43;;;;;;;8.27;3.25;;;;;;;;;;5092480;28;20685;-38
2022/03/22 12:32:12;;;;;;;7.00;3.50;;;;;;;;;;5092569;28;20115;-38
2022/03/22 12:34:39;;;;;;;9.32;3.97;;;;;;;;;;5091191;28;20012;-38
2022/03/22 12:37:08;;;;;;;4.22;3.47;;;;;;;;;;5092805;28;20032;-38
2022/03/22 12:39:34;;;;;;;4.45;3.13;;;;;;;;;;5092275;28;20026;-38
2022/03/22 12:41:59;;;;;;;7.80;2.92;;;;;;;;;;5091222;28;20039;-38
2022/03/22 12:44:25;;;;;;;6.20;3.25;;;;;;;;;;5092510;28;20016;-38
2022/03/22 12:46:51;;;;;;;4.13;2.65;;;;;;;;;;5092346;28;20386;-39
2022/03/22 12:49:17;;;;;;;6.03;3.20;;;;;;;;;;5092320;28;20022;-38
2022/03/22 12:51:43;;;;;;;4.50;3.10;;;;;;;;;;5090612;28;20051;-38
2022/03/22 12:54:09;;;;;;;5.97;3.20;;;;;;;;;;5092277;28;20036;-38
2022/03/22 12:56:35;;;;;;;7.07;3.28;;;;;;;;;;5092280;28;20066;-38
2022/03/22 12:59:02;;;;;;;5.20;2.95;;;;;;;;;;5092047;28;20055;-38
2022/03/22 13:01:38;;;;;;;6.78;3.65;;;;;;;;;;5091918;28;20420;-38
2022/03/22 13:04:05;;;;;;;6.60;3.40;;;;;;;;;;5092044;28;20138;-38
2022/03/22 13:06:32;;;;;;;4.38;2.70;;;;;;;;;;5091800;28;20111;-38
2022/03/22 13:11:41;;;;;;;8.55;4.35;;;;;;;;;;5091778;28;20032;-38
2022/03/22 13:16:55;;;;;;;7.03;3.88;;;;;;;;;;5091763;28;20170;-38
2022/03/22 13:19:21;;;;;;;5.20;3.10;;;;;;;;;;5091636;28;20059;-38
2022/03/22 13:21:47;;;;;;;6.78;3.70;;;;;;;;;;5091726;28;20039;-38
2022/03/22 13:24:24;;;;;;;5.18;3.35;;;;;;;;;;5091772;28;20016;-38
2022/03/22 13:26:51;;;;;;;8.73;3.30;;;;;;;;;;5090471;28;20478;-39
2022/03/22 13:29:18;;;;;;;5.68;3.33;;;;;;;;;;5091718;28;20048;-38
2022/03/22 13:31:53;;;;;;;5.75;4.00;;;;;;;;;;5091594;28;20042;-38
2022/03/22 13:34:19;;;;;;;6.63;3.17;;;;;;;;;;5091915;28;20035;-38
2022/03/22 13:36:45;;;;;;;6.47;3.40;;;;;;;;;;5091556;28;20482;-38
2022/03/22 13:39:12;;;;;;;5.88;3.53;;;;;;;;;;5091876;28;20035;-38
2022/03/22 13:41:37;;;;;;;6.07;3.17;;;;;;;;;;5091453;28;20024;-38
2022/03/22 13:44:03;;;;;;;6.30;3.00;;;;;;;;;;5091768;28;20206;-38
2022/03/22 13:46:28;;;;;;;7.65;3.08;;;;;;;;;;5091449;28;20066;-38
2022/03/22 13:48:55;;;;;;;6.32;3.13;;;;;;;;;;5091722;28;20055;-38
2022/03/22 13:51:21;;;;;;;7.47;3.55;;;;;;;;;;5091142;28;20055;-39
2022/03/22 13:53:47;;;;;;;7.00;3.38;;;;;;;;;;5090208;28;20028;-38
2022/03/22 13:56:13;;;;;;;5.95;3.45;;;;;;;;;;5091542;28;20032;-38
2022/03/22 13:58:44;;;;;;;7.53;4.22;;;;;;;;;;5091325;28;20244;-38
2022/03/22 14:01:11;;;;;;;8.32;3.85;;;;;;;;;;5091377;28;20042;-38
2022/03/22 14:03:37;;;;;;;4.57;2.53;;;;;;;;;;5091239;28;20094;-38
2022/03/22 14:06:02;;;;;;;6.07;3.10;;;;;;;;;;5091322;28;20042;-38
2022/03/22 14:08:28;;;;;;;5.65;3.13;;;;;;;;;;5091252;28;20020;-38
2022/03/22 14:10:58;;;;;;;4.95;3.55;;;;;;;;;;5091140;28;20035;-38
2022/03/22 14:13:25;;;;;;;6.55;2.92;;;;;;;;;;5091107;28;20479;-38
2022/03/22 14:15:50;;;;;;;6.88;3.35;;;;;;;;;;5091238;28;20389;-39
2022/03/22 14:18:18;;;;;;;7.47;3.25;;;;;;;;;;5091451;28;20039;-38
2022/03/22 14:20:43;;;;;;;6.93;3.30;;;;;;;;;;5091073;28;20517;-38
2022/03/22 14:23:10;;;;;;;9.55;3.45;;;;;;;;;;5091131;28;20133;-39
2022/03/22 14:25:36;;;;;;;11.38;3.28;;;;;;;;;;5091105;28;20390;-38
2022/03/22 14:28:02;;;;;;;6.07;3.65;;;;;;;;;;5089803;28;20012;-38
2022/03/22 14:30:29;;;;;;;12.77;3.10;;;;;;;;;;5091010;28;20109;-38
2022/03/22 14:32:56;;;;;;;7.93;3.85;;;;;;;;;;5093275;28;20095;-38
2022/03/22 14:38:08;;;;;;;8.75;3.22;;;;;;;;;;5094737;28;20028;-38
2022/03/22 14:40:34;;;;;;;4.03;2.40;;;;;;;;;;5094952;28;20442;-38
2022/03/22 14:43:07;;;;;;;6.70;3.13;;;;;;;;;;5094666;28;20024;-38
2022/03/22 14:45:33;;;;;;;5.82;3.08;;;;;;;;;;5094468;28;20478;-38
2022/03/22 14:47:59;;;;;;;5.95;2.90;;;;;;;;;;5094751;28;20035;-38
2022/03/22 14:50:28;;;;;;;5.40;2.58;;;;;;;;;;5094565;28;20052;-39
2022/03/22 14:55:42;;;;;;;4.95;2.75;;;;;;;;;;5094547;28;20394;-38
2022/03/22 15:00:56;;;;;;;5.75;3.55;;;;;;;;;;5093031;28;20028;-39
2022/03/22 15:03:26;;;;;;;7.80;3.30;;;;;;;;;;5094313;28;20028;-38
2022/03/22 15:05:52;;;;;;;6.65;3.28;;;;;;;;;;5094193;28;20031;-38
2022/03/22 15:08:20;;;;;;;5.82;3.45;;;;;;;;;;5094312;28;20083;-39
2022/03/22 15:10:47;;;;;;;4.45;2.50;;;;;;;;;;5094096;28;20028;-38
2022/03/22 15:13:13;;;;;;;3.58;2.35;;;;;;;;;;5094233;28;20103;-38
2022/03/22 15:15:40;;;;;;;5.15;2.38;;;;;;;;;;5093998;28;20201;-38
2022/03/22 15:18:09;;;;;;;4.65;3.00;;;;;;;;;;5094321;28;20020;-38
2022/03/22 15:20:36;;;;;;;6.50;2.63;;;;;;;;;;5093869;28;20036;-38
2022/03/22 15:23:06;;;;;;;6.90;3.90;;;;;;;;;;5094032;28;20078;-38
2022/03/22 15:25:32;;;;;;;7.22;3.22;;;;;;;;;;5092684;28;20054;-38